sensor_id;sensor_type;location;lat;lon;timestamp;P1;durP1;ratioP1;P2;durP2;ratioP2
67675;SDS011;54456;48.436;10.028;2023-03-02T00:00:19;24.88;;;10.25;;
67675;SDS011;54456;48.436;10.028;2023-03-02T00:01:51;27.77;;;11.00;;
67675;SDS011;54456;48.436;10.028;2023-03-02T00:03:22;27.00;;;9.88;;
67675;SDS011;54456;48.436;10.028;2023-03-02T00:04:52;24.13;;;11.10;;
67675;SDS011;54456;48.436;10.028;2023-03-02T00:06:25;35.35;;;13.10;;
67675;SDS011;54456;48.436;10.028;2023-03-02T00:07:58;26.23;;;10.30;;
67675;SDS011;54456;48.436;10.028;2023-03-02T00:09:29;29.63;;;12.02;;
67675;SDS011;54456;48.436;10.028;2023-03-02T00:10:59;28.38;;;10.88;;
67675;SDS011;54456;48.436;10.028;2023-03-02T00:12:30;25.48;;;10.70;;
67675;SDS011;54456;48.436;10.028;2023-03-02T00:14:01;26.58;;;11.02;;
67675;SDS011;54456;48.436;10.028;2023-03-02T00:15:31;28.07;;;12.00;;
67675;SDS011;54456;48.436;10.028;2023-03-02T00:17:02;36.27;;;13.53;;
67675;SDS011;54456;48.436;10.028;2023-03-02T00:18:32;27.55;;;12.55;;
67675;SDS011;54456;48.436;10.028;2023-03-02T00:20:03;28.60;;;11.00;;
67675;SDS011;54456;48.436;10.028;2023-03-02T00:21:39;25.05;;;10.75;;
67675;SDS011;54456;48.436;10.028;2023-03-02T00:23:10;31.98;;;13.25;;
67675;SDS011;54456;48.436;10.028;2023-03-02T00:24:40;30.97;;;11.80;;
67675;SDS011;54456;48.436;10.028;2023-03-02T00:26:10;30.37;;;12.57;;
67675;SDS011;54456;48.436;10.028;2023-03-02T00:27:41;25.67;;;10.50;;
67675;SDS011;54456;48.436;10.028;2023-03-02T00:29:11;29.23;;;11.80;;
67675;SDS011;54456;48.436;10.028;2023-03-02T04:16:36;23.42;;;7.85;;
67675;SDS011;54456;48.436;10.028;2023-03-02T04:18:06;17.88;;;5.88;;
67675;SDS011;54456;48.436;10.028;2023-03-02T04:19:36;22.20;;;6.97;;
67675;SDS011;54456;48.436;10.028;2023-03-02T04:21:06;21.90;;;7.47;;
67675;SDS011;54456;48.436;10.028;2023-03-02T04:22:37;24.33;;;9.77;;
67675;SDS011;54456;48.436;10.028;2023-03-02T04:24:07;26.43;;;8.23;;
67675;SDS011;54456;48.436;10.028;2023-03-02T04:25:38;26.55;;;10.95;;
67675;SDS011;54456;48.436;10.028;2023-03-02T04:27:08;20.87;;;8.90;;
67675;SDS011;54456;48.436;10.028;2023-03-02T04:28:38;16.50;;;6.17;;
67675;SDS011;54456;48.436;10.028;2023-03-02T04:30:09;15.50;;;6.03;;
67675;SDS011;54456;48.436;10.028;2023-03-02T04:31:39;14.93;;;5.60;;
67675;SDS011;54456;48.436;10.028;2023-03-02T04:33:10;22.13;;;7.17;;
67675;SDS011;54456;48.436;10.028;2023-03-02T04:34:40;21.83;;;7.87;;
67675;SDS011;54456;48.436;10.028;2023-03-02T04:36:10;25.83;;;9.77;;
67675;SDS011;54456;48.436;10.028;2023-03-02T04:37:41;23.10;;;8.50;;
67675;SDS011;54456;48.436;10.028;2023-03-02T04:39:12;19.00;;;5.60;;
67675;SDS011;54456;48.436;10.028;2023-03-02T04:40:43;27.73;;;9.82;;
67675;SDS011;54456;48.436;10.028;2023-03-02T04:42:15;22.85;;;8.40;;
67675;SDS011;54456;48.436;10.028;2023-03-02T04:43:54;27.20;;;9.63;;
67675;SDS011;54456;48.436;10.028;2023-03-02T04:45:25;21.67;;;8.40;;
67675;SDS011;54456;48.436;10.028;2023-03-02T04:46:55;12.90;;;4.40;;
67675;SDS011;54456;48.436;10.028;2023-03-02T04:48:26;22.07;;;7.93;;
67675;SDS011;54456;48.436;10.028;2023-03-02T04:49:56;21.83;;;8.53;;
67675;SDS011;54456;48.436;10.028;2023-03-02T04:51:27;27.27;;;8.83;;
67675;SDS011;54456;48.436;10.028;2023-03-02T04:52:58;20.48;;;7.00;;
67675;SDS011;54456;48.436;10.028;2023-03-02T04:54:28;16.57;;;5.57;;
67675;SDS011;54456;48.436;10.028;2023-03-02T04:55:58;17.37;;;6.70;;
67675;SDS011;54456;48.436;10.028;2023-03-02T04:57:28;22.13;;;6.57;;
67675;SDS011;54456;48.436;10.028;2023-03-02T04:58:59;22.73;;;7.53;;
67675;SDS011;54456;48.436;10.028;2023-03-02T05:00:29;21.57;;;7.30;;
67675;SDS011;54456;48.436;10.028;2023-03-02T05:02:03;18.35;;;6.00;;
67675;SDS011;54456;48.436;10.028;2023-03-02T05:03:33;19.98;;;7.78;;
67675;SDS011;54456;48.436;10.028;2023-03-02T05:05:03;26.13;;;7.93;;
67675;SDS011;54456;48.436;10.028;2023-03-02T05:06:34;19.50;;;7.40;;
67675;SDS011;54456;48.436;10.028;2023-03-02T05:08:04;19.93;;;7.23;;
67675;SDS011;54456;48.436;10.028;2023-03-02T05:09:34;15.30;;;5.30;;
67675;SDS011;54456;48.436;10.028;2023-03-02T05:11:04;20.33;;;6.93;;
67675;SDS011;54456;48.436;10.028;2023-03-02T05:12:36;19.15;;;6.88;;
67675;SDS011;54456;48.436;10.028;2023-03-02T05:14:23;18.75;;;7.28;;
67675;SDS011;54456;48.436;10.028;2023-03-02T05:15:54;25.67;;;9.02;;
67675;SDS011;54456;48.436;10.028;2023-03-02T05:17:26;17.63;;;5.97;;
67675;SDS011;54456;48.436;10.028;2023-03-02T05:18:57;14.10;;;4.77;;
67675;SDS011;54456;48.436;10.028;2023-03-02T05:20:27;18.80;;;7.60;;
67675;SDS011;54456;48.436;10.028;2023-03-02T05:21:59;20.08;;;7.47;;
67675;SDS011;54456;48.436;10.028;2023-03-02T05:23:29;23.35;;;8.32;;
67675;SDS011;54456;48.436;10.028;2023-03-02T05:25:00;18.92;;;6.40;;
67675;SDS011;54456;48.436;10.028;2023-03-02T05:26:30;19.90;;;6.27;;
67675;SDS011;54456;48.436;10.028;2023-03-02T05:28:01;21.58;;;6.70;;
67675;SDS011;54456;48.436;10.028;2023-03-02T05:29:31;17.88;;;7.38;;
67675;SDS011;54456;48.436;10.028;2023-03-02T05:31:02;21.83;;;7.10;;
67675;SDS011;54456;48.436;10.028;2023-03-02T05:32:32;18.08;;;6.38;;
67675;SDS011;54456;48.436;10.028;2023-03-02T05:34:03;26.17;;;9.13;;
67675;SDS011;54456;48.436;10.028;2023-03-02T05:35:33;19.27;;;7.32;;
67675;SDS011;54456;48.436;10.028;2023-03-02T05:37:04;24.00;;;9.10;;
67675;SDS011;54456;48.436;10.028;2023-03-02T05:38:34;16.73;;;6.83;;
67675;SDS011;54456;48.436;10.028;2023-03-02T05:40:04;17.10;;;7.00;;
67675;SDS011;54456;48.436;10.028;2023-03-02T05:41:35;21.05;;;8.23;;
67675;SDS011;54456;48.436;10.028;2023-03-02T05:43:06;13.05;;;4.60;;
67675;SDS011;54456;48.436;10.028;2023-03-02T05:44:36;25.60;;;9.63;;
67675;SDS011;54456;48.436;10.028;2023-03-02T05:46:06;16.70;;;5.77;;
67675;SDS011;54456;48.436;10.028;2023-03-02T05:47:36;15.07;;;5.43;;
67675;SDS011;54456;48.436;10.028;2023-03-02T05:49:09;18.88;;;6.90;;
67675;SDS011;54456;48.436;10.028;2023-03-02T05:50:40;18.00;;;6.03;;
67675;SDS011;54456;48.436;10.028;2023-03-02T05:52:10;20.13;;;8.68;;
67675;SDS011;54456;48.436;10.028;2023-03-02T05:53:40;18.80;;;6.87;;
67675;SDS011;54456;48.436;10.028;2023-03-02T05:55:11;26.13;;;8.60;;
67675;SDS011;54456;48.436;10.028;2023-03-02T05:56:41;22.98;;;7.97;;
67675;SDS011;54456;48.436;10.028;2023-03-02T05:58:13;17.10;;;6.15;;
67675;SDS011;54456;48.436;10.028;2023-03-02T05:59:44;20.70;;;6.93;;
67675;SDS011;54456;48.436;10.028;2023-03-02T06:01:15;18.17;;;6.72;;
67675;SDS011;54456;48.436;10.028;2023-03-02T06:02:45;18.80;;;6.57;;
67675;SDS011;54456;48.436;10.028;2023-03-02T06:04:15;19.30;;;6.87;;
67675;SDS011;54456;48.436;10.028;2023-03-02T06:05:46;18.63;;;6.93;;
67675;SDS011;54456;48.436;10.028;2023-03-02T06:07:19;16.77;;;6.50;;
67675;SDS011;54456;48.436;10.028;2023-03-02T06:08:50;14.90;;;5.50;;
67675;SDS011;54456;48.436;10.028;2023-03-02T06:10:20;22.77;;;8.57;;
67675;SDS011;54456;48.436;10.028;2023-03-02T06:11:50;22.13;;;7.37;;
67675;SDS011;54456;48.436;10.028;2023-03-02T06:13:21;19.27;;;6.47;;
67675;SDS011;54456;48.436;10.028;2023-03-02T06:14:51;17.67;;;7.33;;
67675;SDS011;54456;48.436;10.028;2023-03-02T06:16:21;20.27;;;6.93;;
67675;SDS011;54456;48.436;10.028;2023-03-02T06:17:51;16.97;;;7.07;;
67675;SDS011;54456;48.436;10.028;2023-03-02T06:19:22;24.67;;;9.30;;
67675;SDS011;54456;48.436;10.028;2023-03-02T06:20:52;29.57;;;10.00;;
67675;SDS011;54456;48.436;10.028;2023-03-02T06:22:22;14.83;;;5.67;;
67675;SDS011;54456;48.436;10.028;2023-03-02T06:23:52;16.93;;;6.83;;
67675;SDS011;54456;48.436;10.028;2023-03-02T06:25:23;23.67;;;7.93;;
67675;SDS011;54456;48.436;10.028;2023-03-02T06:26:53;18.83;;;7.40;;
67675;SDS011;54456;48.436;10.028;2023-03-02T06:28:23;13.80;;;4.38;;
67675;SDS011;54456;48.436;10.028;2023-03-02T06:29:54;21.30;;;7.55;;
67675;SDS011;54456;48.436;10.028;2023-03-02T06:31:24;13.50;;;4.43;;
67675;SDS011;54456;48.436;10.028;2023-03-02T06:32:54;19.93;;;6.53;;
67675;SDS011;54456;48.436;10.028;2023-03-02T06:34:24;16.53;;;6.23;;
67675;SDS011;54456;48.436;10.028;2023-03-02T06:35:55;17.35;;;5.63;;
67675;SDS011;54456;48.436;10.028;2023-03-02T06:37:26;20.33;;;7.90;;
67675;SDS011;54456;48.436;10.028;2023-03-02T06:38:57;17.98;;;5.32;;
67675;SDS011;54456;48.436;10.028;2023-03-02T06:40:27;12.33;;;4.47;;
67675;SDS011;54456;48.436;10.028;2023-03-02T06:41:57;19.90;;;7.17;;
67675;SDS011;54456;48.436;10.028;2023-03-02T06:43:29;19.08;;;7.47;;
67675;SDS011;54456;48.436;10.028;2023-03-02T06:44:59;17.17;;;6.43;;
67675;SDS011;54456;48.436;10.028;2023-03-02T06:46:29;22.17;;;6.53;;
67675;SDS011;54456;48.436;10.028;2023-03-02T06:48:00;16.53;;;6.17;;
67675;SDS011;54456;48.436;10.028;2023-03-02T06:49:30;18.73;;;6.40;;
67675;SDS011;54456;48.436;10.028;2023-03-02T06:51:00;16.23;;;5.67;;
67675;SDS011;54456;48.436;10.028;2023-03-02T06:52:30;15.90;;;5.23;;
67675;SDS011;54456;48.436;10.028;2023-03-02T06:54:01;20.90;;;7.18;;
67675;SDS011;54456;48.436;10.028;2023-03-02T06:55:31;15.67;;;6.63;;
67675;SDS011;54456;48.436;10.028;2023-03-02T06:57:01;20.33;;;7.40;;
67675;SDS011;54456;48.436;10.028;2023-03-02T06:58:32;16.65;;;5.60;;
67675;SDS011;54456;48.436;10.028;2023-03-02T07:00:03;13.03;;;3.73;;
67675;SDS011;54456;48.436;10.028;2023-03-02T07:01:38;12.38;;;4.28;;
67675;SDS011;54456;48.436;10.028;2023-03-02T07:03:09;19.77;;;6.60;;
67675;SDS011;54456;48.436;10.028;2023-03-02T07:04:39;17.47;;;5.13;;
67675;SDS011;54456;48.436;10.028;2023-03-02T07:06:10;18.97;;;6.87;;
67675;SDS011;54456;48.436;10.028;2023-03-02T07:07:41;18.17;;;6.93;;
67675;SDS011;54456;48.436;10.028;2023-03-02T07:09:11;12.55;;;4.70;;
67675;SDS011;54456;48.436;10.028;2023-03-02T07:10:41;21.23;;;7.13;;
67675;SDS011;54456;48.436;10.028;2023-03-02T07:12:11;17.27;;;6.77;;
67675;SDS011;54456;48.436;10.028;2023-03-02T07:13:42;18.50;;;6.30;;
67675;SDS011;54456;48.436;10.028;2023-03-02T07:15:12;21.57;;;7.37;;
67675;SDS011;54456;48.436;10.028;2023-03-02T07:16:43;24.13;;;8.73;;
67675;SDS011;54456;48.436;10.028;2023-03-02T07:18:13;25.23;;;9.40;;
67675;SDS011;54456;48.436;10.028;2023-03-02T07:19:43;19.50;;;7.90;;
67675;SDS011;54456;48.436;10.028;2023-03-02T07:21:13;24.50;;;8.17;;
67675;SDS011;54456;48.436;10.028;2023-03-02T07:22:44;39.13;;;9.83;;
67675;SDS011;54456;48.436;10.028;2023-03-02T07:24:14;22.08;;;8.52;;
67675;SDS011;54456;48.436;10.028;2023-03-02T07:25:44;31.60;;;10.23;;
67675;SDS011;54456;48.436;10.028;2023-03-02T07:27:14;23.33;;;7.53;;
67675;SDS011;54456;48.436;10.028;2023-03-02T07:28:45;23.20;;;7.83;;
67675;SDS011;54456;48.436;10.028;2023-03-02T07:30:15;16.73;;;5.97;;
67675;SDS011;54456;48.436;10.028;2023-03-02T07:31:50;18.38;;;6.75;;
67675;SDS011;54456;48.436;10.028;2023-03-02T07:33:28;16.10;;;6.75;;
67675;SDS011;54456;48.436;10.028;2023-03-02T07:34:59;21.38;;;8.63;;
67675;SDS011;54456;48.436;10.028;2023-03-02T07:36:32;29.23;;;10.30;;
67675;SDS011;54456;48.436;10.028;2023-03-02T07:38:03;21.98;;;8.88;;
67675;SDS011;54456;48.436;10.028;2023-03-02T07:39:33;15.75;;;6.15;;
67675;SDS011;54456;48.436;10.028;2023-03-02T07:41:07;20.40;;;7.70;;
67675;SDS011;54456;48.436;10.028;2023-03-02T07:42:40;22.65;;;8.60;;
67675;SDS011;54456;48.436;10.028;2023-03-02T07:44:13;20.73;;;7.95;;
67675;SDS011;54456;48.436;10.028;2023-03-02T07:45:43;25.45;;;8.75;;
67675;SDS011;54456;48.436;10.028;2023-03-02T07:47:14;29.30;;;11.47;;
67675;SDS011;54456;48.436;10.028;2023-03-02T07:48:44;29.67;;;11.33;;
67675;SDS011;54456;48.436;10.028;2023-03-02T07:50:14;20.23;;;6.93;;
67675;SDS011;54456;48.436;10.028;2023-03-02T07:51:44;24.30;;;10.40;;
67675;SDS011;54456;48.436;10.028;2023-03-02T07:53:14;25.40;;;10.43;;
67675;SDS011;54456;48.436;10.028;2023-03-02T07:54:45;22.43;;;9.03;;
67675;SDS011;54456;48.436;10.028;2023-03-02T07:56:15;25.60;;;9.10;;
67675;SDS011;54456;48.436;10.028;2023-03-02T07:57:45;17.90;;;6.07;;
67675;SDS011;54456;48.436;10.028;2023-03-02T07:59:15;18.00;;;5.87;;
67675;SDS011;54456;48.436;10.028;2023-03-02T08:00:53;21.80;;;7.10;;
67675;SDS011;54456;48.436;10.028;2023-03-02T08:02:35;23.30;;;9.00;;
67675;SDS011;54456;48.436;10.028;2023-03-02T08:04:05;22.77;;;7.63;;
67675;SDS011;54456;48.436;10.028;2023-03-02T08:05:35;22.13;;;7.90;;
67675;SDS011;54456;48.436;10.028;2023-03-02T08:07:05;26.17;;;9.43;;
67675;SDS011;54456;48.436;10.028;2023-03-02T08:08:36;22.40;;;9.63;;
67675;SDS011;54456;48.436;10.028;2023-03-02T08:10:06;18.42;;;6.68;;
67675;SDS011;54456;48.436;10.028;2023-03-02T08:11:37;18.52;;;5.43;;
67675;SDS011;54456;48.436;10.028;2023-03-02T08:13:07;14.67;;;5.70;;
67675;SDS011;54456;48.436;10.028;2023-03-02T08:14:37;14.27;;;5.53;;
67675;SDS011;54456;48.436;10.028;2023-03-02T08:16:08;17.13;;;5.00;;
67675;SDS011;54456;48.436;10.028;2023-03-02T08:17:39;19.15;;;7.63;;
67675;SDS011;54456;48.436;10.028;2023-03-02T08:19:09;17.50;;;6.83;;
67675;SDS011;54456;48.436;10.028;2023-03-02T08:20:39;18.70;;;6.85;;
67675;SDS011;54456;48.436;10.028;2023-03-02T08:22:09;16.80;;;5.67;;
67675;SDS011;54456;48.436;10.028;2023-03-02T08:23:39;16.77;;;6.50;;
67675;SDS011;54456;48.436;10.028;2023-03-02T08:25:10;17.13;;;6.63;;
67675;SDS011;54456;48.436;10.028;2023-03-02T08:26:42;14.33;;;6.17;;
67675;SDS011;54456;48.436;10.028;2023-03-02T08:28:13;21.88;;;7.03;;
67675;SDS011;54456;48.436;10.028;2023-03-02T08:29:43;20.33;;;8.20;;
67675;SDS011;54456;48.436;10.028;2023-03-02T08:31:13;18.80;;;6.77;;
67675;SDS011;54456;48.436;10.028;2023-03-02T08:32:44;15.65;;;5.95;;
67675;SDS011;54456;48.436;10.028;2023-03-02T08:34:14;24.30;;;8.68;;
67675;SDS011;54456;48.436;10.028;2023-03-02T08:35:52;21.37;;;8.53;;
67675;SDS011;54456;48.436;10.028;2023-03-02T08:37:22;16.05;;;5.82;;
67675;SDS011;54456;48.436;10.028;2023-03-02T08:38:53;24.17;;;9.20;;
67675;SDS011;54456;48.436;10.028;2023-03-02T08:40:23;20.57;;;7.80;;
67675;SDS011;54456;48.436;10.028;2023-03-02T08:41:53;26.00;;;9.60;;
67675;SDS011;54456;48.436;10.028;2023-03-02T08:43:24;15.27;;;6.03;;
67675;SDS011;54456;48.436;10.028;2023-03-02T08:44:54;24.25;;;8.20;;
67675;SDS011;54456;48.436;10.028;2023-03-02T08:46:24;25.57;;;11.03;;
67675;SDS011;54456;48.436;10.028;2023-03-02T08:47:55;23.07;;;8.47;;
67675;SDS011;54456;48.436;10.028;2023-03-02T08:49:25;16.23;;;6.13;;
67675;SDS011;54456;48.436;10.028;2023-03-02T08:50:56;21.27;;;7.90;;
67675;SDS011;54456;48.436;10.028;2023-03-02T08:52:26;21.80;;;7.97;;
67675;SDS011;54456;48.436;10.028;2023-03-02T08:53:56;20.93;;;7.00;;
67675;SDS011;54456;48.436;10.028;2023-03-02T08:55:27;18.80;;;6.97;;
67675;SDS011;54456;48.436;10.028;2023-03-02T08:56:57;16.87;;;5.30;;
67675;SDS011;54456;48.436;10.028;2023-03-02T08:58:29;18.37;;;6.30;;
67675;SDS011;54456;48.436;10.028;2023-03-02T09:00:00;15.95;;;5.95;;
67675;SDS011;54456;48.436;10.028;2023-03-02T09:01:31;15.70;;;6.00;;
67675;SDS011;54456;48.436;10.028;2023-03-02T09:03:01;16.17;;;5.93;;
67675;SDS011;54456;48.436;10.028;2023-03-02T09:04:32;19.50;;;8.23;;
67675;SDS011;54456;48.436;10.028;2023-03-02T09:06:03;14.60;;;6.38;;
67675;SDS011;54456;48.436;10.028;2023-03-02T09:07:33;20.50;;;6.90;;
67675;SDS011;54456;48.436;10.028;2023-03-02T09:09:04;17.92;;;6.90;;
67675;SDS011;54456;48.436;10.028;2023-03-02T09:10:34;20.63;;;8.20;;
67675;SDS011;54456;48.436;10.028;2023-03-02T09:12:04;18.80;;;6.23;;
67675;SDS011;54456;48.436;10.028;2023-03-02T09:13:35;15.37;;;5.37;;
67675;SDS011;54456;48.436;10.028;2023-03-02T09:15:05;25.40;;;9.17;;
67675;SDS011;54456;48.436;10.028;2023-03-02T09:16:35;25.35;;;10.23;;
67675;SDS011;54456;48.436;10.028;2023-03-02T09:18:06;24.37;;;8.33;;
67675;SDS011;54456;48.436;10.028;2023-03-02T09:19:36;19.40;;;6.30;;
67675;SDS011;54456;48.436;10.028;2023-03-02T09:21:10;23.60;;;10.05;;
67675;SDS011;54456;48.436;10.028;2023-03-02T09:22:41;17.87;;;6.93;;
67675;SDS011;54456;48.436;10.028;2023-03-02T09:24:17;14.02;;;4.97;;
67675;SDS011;54456;48.436;10.028;2023-03-02T09:25:47;21.77;;;8.93;;
67675;SDS011;54456;48.436;10.028;2023-03-02T09:27:18;19.55;;;5.68;;
67675;SDS011;54456;48.436;10.028;2023-03-02T09:28:48;22.57;;;10.13;;
67675;SDS011;54456;48.436;10.028;2023-03-02T09:30:18;15.97;;;6.90;;
67675;SDS011;54456;48.436;10.028;2023-03-02T09:31:48;14.90;;;5.70;;
67675;SDS011;54456;48.436;10.028;2023-03-02T09:33:19;14.67;;;5.20;;
67675;SDS011;54456;48.436;10.028;2023-03-02T09:34:49;27.05;;;10.70;;
67675;SDS011;54456;48.436;10.028;2023-03-02T09:36:20;16.88;;;6.55;;
67675;SDS011;54456;48.436;10.028;2023-03-02T09:37:51;27.42;;;10.52;;
67675;SDS011;54456;48.436;10.028;2023-03-02T09:39:21;17.40;;;5.37;;
67675;SDS011;54456;48.436;10.028;2023-03-02T09:48:42;28.60;;;9.97;;
67675;SDS011;54456;48.436;10.028;2023-03-02T09:53:40;14.82;;;5.88;;
67675;SDS011;54456;48.436;10.028;2023-03-02T09:55:17;18.70;;;6.72;;
67675;SDS011;54456;48.436;10.028;2023-03-02T09:56:48;18.73;;;7.28;;
67675;SDS011;54456;48.436;10.028;2023-03-02T09:58:19;16.50;;;5.57;;
67675;SDS011;54456;48.436;10.028;2023-03-02T10:01:52;19.73;;;7.15;;
67675;SDS011;54456;48.436;10.028;2023-03-02T10:03:26;27.60;;;9.75;;
67675;SDS011;54456;48.436;10.028;2023-03-02T10:04:59;28.20;;;9.25;;
67675;SDS011;54456;48.436;10.028;2023-03-02T10:06:31;18.58;;;6.65;;
67675;SDS011;54456;48.436;10.028;2023-03-02T10:08:01;23.97;;;8.70;;
67675;SDS011;54456;48.436;10.028;2023-03-02T10:09:31;19.70;;;7.17;;
67675;SDS011;54456;48.436;10.028;2023-03-02T10:14:35;29.23;;;10.65;;
67675;SDS011;54456;48.436;10.028;2023-03-02T10:19:36;26.55;;;10.35;;
67675;SDS011;54456;48.436;10.028;2023-03-02T10:21:20;18.48;;;5.85;;
67675;SDS011;54456;48.436;10.028;2023-03-02T10:22:52;21.38;;;8.00;;
67675;SDS011;54456;48.436;10.028;2023-03-02T10:24:40;28.42;;;11.75;;
67675;SDS011;54456;48.436;10.028;2023-03-02T10:27:48;25.60;;;10.63;;
67675;SDS011;54456;48.436;10.028;2023-03-02T10:31:00;28.58;;;8.75;;
67675;SDS011;54456;48.436;10.028;2023-03-02T10:32:36;15.55;;;5.72;;
67675;SDS011;54456;48.436;10.028;2023-03-02T10:34:08;25.73;;;9.80;;
67675;SDS011;54456;48.436;10.028;2023-03-02T10:35:40;19.58;;;6.90;;
67675;SDS011;54456;48.436;10.028;2023-03-02T10:38:43;25.77;;;9.83;;
67675;SDS011;54456;48.436;10.028;2023-03-02T10:40:23;20.40;;;8.00;;
67675;SDS011;54456;48.436;10.028;2023-03-02T10:42:06;27.83;;;10.32;;
67675;SDS011;54456;48.436;10.028;2023-03-02T10:43:46;32.97;;;12.45;;
67675;SDS011;54456;48.436;10.028;2023-03-02T10:46:50;17.67;;;5.53;;
67675;SDS011;54456;48.436;10.028;2023-03-02T10:48:22;26.80;;;9.40;;
67675;SDS011;54456;48.436;10.028;2023-03-02T10:49:53;24.73;;;9.15;;
67675;SDS011;54456;48.436;10.028;2023-03-02T10:51:28;25.40;;;9.45;;
67675;SDS011;54456;48.436;10.028;2023-03-02T10:52:58;28.27;;;11.57;;
67675;SDS011;54456;48.436;10.028;2023-03-02T10:54:29;28.85;;;12.35;;
67675;SDS011;54456;48.436;10.028;2023-03-02T10:56:00;27.10;;;11.20;;
67675;SDS011;54456;48.436;10.028;2023-03-02T10:57:34;29.90;;;10.97;;
67675;SDS011;54456;48.436;10.028;2023-03-02T11:02:32;20.57;;;7.70;;
67675;SDS011;54456;48.436;10.028;2023-03-02T11:04:03;30.17;;;11.52;;
67675;SDS011;54456;48.436;10.028;2023-03-02T11:05:42;23.88;;;8.82;;
67675;SDS011;54456;48.436;10.028;2023-03-02T11:07:15;28.15;;;9.95;;
67675;SDS011;54456;48.436;10.028;2023-03-02T11:08:56;26.92;;;9.60;;
67675;SDS011;54456;48.436;10.028;2023-03-02T11:10:28;25.10;;;8.52;;
67675;SDS011;54456;48.436;10.028;2023-03-02T11:12:00;21.33;;;7.13;;
67675;SDS011;54456;48.436;10.028;2023-03-02T11:13:32;29.23;;;10.27;;
67675;SDS011;54456;48.436;10.028;2023-03-02T11:16:33;29.23;;;9.97;;
67675;SDS011;54456;48.436;10.028;2023-03-02T11:19:33;28.77;;;10.47;;
67675;SDS011;54456;48.436;10.028;2023-03-02T11:21:07;25.35;;;9.18;;
67675;SDS011;54456;48.436;10.028;2023-03-02T11:24:30;28.13;;;11.45;;
67675;SDS011;54456;48.436;10.028;2023-03-02T11:26:04;26.40;;;10.48;;
67675;SDS011;54456;48.436;10.028;2023-03-02T11:27:35;25.42;;;10.48;;
67675;SDS011;54456;48.436;10.028;2023-03-02T11:30:47;29.88;;;11.43;;
67675;SDS011;54456;48.436;10.028;2023-03-02T11:32:42;31.20;;;13.45;;
67675;SDS011;54456;48.436;10.028;2023-03-02T11:35:50;29.40;;;9.87;;
67675;SDS011;54456;48.436;10.028;2023-03-02T11:37:28;26.38;;;9.00;;
67675;SDS011;54456;48.436;10.028;2023-03-02T11:39:02;24.35;;;8.60;;
67675;SDS011;54456;48.436;10.028;2023-03-02T11:40:59;25.05;;;9.80;;
67675;SDS011;54456;48.436;10.028;2023-03-02T11:42:35;26.38;;;9.85;;
67675;SDS011;54456;48.436;10.028;2023-03-02T11:44:11;29.20;;;10.57;;
67675;SDS011;54456;48.436;10.028;2023-03-02T11:45:47;23.73;;;10.00;;
67675;SDS011;54456;48.436;10.028;2023-03-02T11:47:20;28.23;;;10.75;;
67675;SDS011;54456;48.436;10.028;2023-03-02T11:48:52;27.30;;;9.90;;
67675;SDS011;54456;48.436;10.028;2023-03-02T11:50:23;26.27;;;10.38;;
67675;SDS011;54456;48.436;10.028;2023-03-02T11:51:57;27.60;;;10.82;;
67675;SDS011;54456;48.436;10.028;2023-03-02T11:53:32;31.52;;;12.00;;
67675;SDS011;54456;48.436;10.028;2023-03-02T11:55:16;28.05;;;11.82;;
67675;SDS011;54456;48.436;10.028;2023-03-02T11:56:47;30.80;;;11.23;;
67675;SDS011;54456;48.436;10.028;2023-03-02T11:58:18;26.03;;;10.90;;
67675;SDS011;54456;48.436;10.028;2023-03-02T11:59:49;25.40;;;10.13;;
67675;SDS011;54456;48.436;10.028;2023-03-02T12:01:20;27.30;;;11.70;;
67675;SDS011;54456;48.436;10.028;2023-03-02T12:03:05;30.27;;;12.05;;
67675;SDS011;54456;48.436;10.028;2023-03-02T12:04:36;25.85;;;10.75;;
67675;SDS011;54456;48.436;10.028;2023-03-02T12:07:43;27.40;;;10.48;;
67675;SDS011;54456;48.436;10.028;2023-03-02T12:10:56;28.80;;;10.10;;
67675;SDS011;54456;48.436;10.028;2023-03-02T12:12:32;23.42;;;8.52;;
67675;SDS011;54456;48.436;10.028;2023-03-02T12:14:03;24.50;;;8.15;;
67675;SDS011;54456;48.436;10.028;2023-03-02T12:15:35;24.98;;;10.25;;
67675;SDS011;54456;48.436;10.028;2023-03-02T12:18:50;25.15;;;10.82;;
67675;SDS011;54456;48.436;10.028;2023-03-02T12:20:22;27.85;;;11.25;;
67675;SDS011;54456;48.436;10.028;2023-03-02T12:21:57;28.63;;;11.68;;
67675;SDS011;54456;48.436;10.028;2023-03-02T12:23:28;25.63;;;10.80;;
67675;SDS011;54456;48.436;10.028;2023-03-02T12:25:04;26.77;;;10.25;;
67675;SDS011;54456;48.436;10.028;2023-03-02T12:26:36;28.30;;;10.65;;
67675;SDS011;54456;48.436;10.028;2023-03-02T12:28:29;25.00;;;10.40;;
67675;SDS011;54456;48.436;10.028;2023-03-02T12:34:58;27.85;;;10.73;;
67675;SDS011;54456;48.436;10.028;2023-03-02T12:36:31;27.52;;;11.07;;
67675;SDS011;54456;48.436;10.028;2023-03-02T12:41:32;29.48;;;10.65;;
67675;SDS011;54456;48.436;10.028;2023-03-02T12:43:19;35.65;;;12.77;;
67675;SDS011;54456;48.436;10.028;2023-03-02T12:44:54;28.92;;;11.70;;
67675;SDS011;54456;48.436;10.028;2023-03-02T12:46:34;35.13;;;13.90;;
67675;SDS011;54456;48.436;10.028;2023-03-02T12:48:14;33.88;;;12.70;;
67675;SDS011;54456;48.436;10.028;2023-03-02T12:49:50;28.50;;;11.77;;
67675;SDS011;54456;48.436;10.028;2023-03-02T12:51:25;37.75;;;15.02;;
67675;SDS011;54456;48.436;10.028;2023-03-02T12:53:02;44.05;;;16.15;;
67675;SDS011;54456;48.436;10.028;2023-03-02T12:54:33;32.83;;;14.20;;
67675;SDS011;54456;48.436;10.028;2023-03-02T12:56:03;38.40;;;14.40;;
67675;SDS011;54456;48.436;10.028;2023-03-02T12:57:37;31.88;;;12.10;;
67675;SDS011;54456;48.436;10.028;2023-03-02T12:59:26;27.60;;;11.88;;
67675;SDS011;54456;48.436;10.028;2023-03-02T13:00:58;28.35;;;11.05;;
67675;SDS011;54456;48.436;10.028;2023-03-02T13:02:29;26.83;;;9.45;;
67675;SDS011;54456;48.436;10.028;2023-03-02T13:04:00;26.63;;;10.15;;
67675;SDS011;54456;48.436;10.028;2023-03-02T13:05:33;27.93;;;10.87;;
67675;SDS011;54456;48.436;10.028;2023-03-02T13:07:04;44.78;;;16.00;;
67675;SDS011;54456;48.436;10.028;2023-03-02T13:08:34;24.50;;;10.27;;
67675;SDS011;54456;48.436;10.028;2023-03-02T13:10:13;29.27;;;11.30;;
67675;SDS011;54456;48.436;10.028;2023-03-02T13:11:45;27.67;;;11.02;;
67675;SDS011;54456;48.436;10.028;2023-03-02T13:13:18;28.35;;;10.77;;
67675;SDS011;54456;48.436;10.028;2023-03-02T13:14:51;26.15;;;10.50;;
67675;SDS011;54456;48.436;10.028;2023-03-02T13:16:22;29.48;;;11.63;;
67675;SDS011;54456;48.436;10.028;2023-03-02T13:17:54;29.50;;;12.23;;
67675;SDS011;54456;48.436;10.028;2023-03-02T13:19:25;33.17;;;12.48;;
67675;SDS011;54456;48.436;10.028;2023-03-02T13:20:56;30.85;;;11.45;;
67675;SDS011;54456;48.436;10.028;2023-03-02T13:22:27;30.70;;;12.27;;
67675;SDS011;54456;48.436;10.028;2023-03-02T13:23:58;26.27;;;11.15;;
67675;SDS011;54456;48.436;10.028;2023-03-02T13:25:29;30.65;;;12.55;;
67675;SDS011;54456;48.436;10.028;2023-03-02T13:27:04;33.53;;;12.55;;
67675;SDS011;54456;48.436;10.028;2023-03-02T13:28:36;31.98;;;13.52;;
67675;SDS011;54456;48.436;10.028;2023-03-02T13:30:21;32.70;;;14.35;;
67675;SDS011;54456;48.436;10.028;2023-03-02T13:31:52;28.98;;;11.63;;
67675;SDS011;54456;48.436;10.028;2023-03-02T13:33:23;28.95;;;12.05;;